Time;durP1;ratioP1;P1;durP2;ratioP2;P2;SDS_P1;SDS_P2;PMS_P1;PMS_P2;Temp;Humidity;BMP_temperature;BMP_pressure;BME280_temperature;BME280_humidity;BME280_pressure;Samples;Min_cycle;Max_cycle;Signal;HPM_P1;HPM_P2
2022/01/29 00:01:25;;;;;;;0.30;0.20;;;1.90;99.90;;;;;;4977424;28;20454;-82
2022/01/29 00:03:52;;;;;;;0.30;0.30;;;1.90;99.90;;;;;;4977325;28;20449;-82
2022/01/29 00:06:18;;;;;;;0.30;0.30;;;2.00;99.90;;;;;;4977237;28;20480;-82
2022/01/29 00:08:45;;;;;;;0.93;0.47;;;1.90;99.90;;;;;;4977279;28;20455;-82
2022/01/29 00:11:14;;;;;;;0.30;0.30;;;1.90;99.90;;;;;;4977120;28;20489;-82
2022/01/29 00:13:41;;;;;;;0.70;0.40;;;1.90;99.90;;;;;;4976723;28;20489;-82
2022/01/29 00:16:10;;;;;;;0.40;0.40;;;1.90;99.90;;;;;;4977088;28;20473;-82
2022/01/29 00:18:38;;;;;;;0.40;0.37;;;1.90;99.90;;;;;;4977088;28;20453;-82
2022/01/29 00:21:05;;;;;;;0.93;0.93;;;1.90;99.90;;;;;;4976892;28;20445;-87
2022/01/29 00:23:32;;;;;;;0.30;0.30;;;1.90;99.90;;;;;;4977525;28;20480;-87
2022/01/29 00:25:59;;;;;;;0.30;0.30;;;1.90;99.90;;;;;;4977197;28;20471;-87
2022/01/29 00:28:27;;;;;;;0.30;0.20;;;2.00;99.90;;;;;;4976952;28;20445;-83
2022/01/29 00:30:53;;;;;;;0.30;0.20;;;2.00;99.90;;;;;;4976805;28;20496;-82
2022/01/29 00:33:21;;;;;;;0.30;0.20;;;2.00;99.90;;;;;;4977321;28;20880;-82
2022/01/29 00:35:48;;;;;;;0.30;0.20;;;2.00;99.90;;;;;;4976743;28;20480;-82
2022/01/29 00:38:15;;;;;;;0.40;0.37;;;2.00;99.90;;;;;;4976759;28;20459;-82
2022/01/29 00:40:44;;;;;;;0.30;0.20;;;2.00;99.90;;;;;;4976523;28;20449;-82
2022/01/29 00:43:10;;;;;;;1.27;0.50;;;2.00;99.90;;;;;;4976656;28;20449;-82
2022/01/29 00:45:37;;;;;;;0.30;0.30;;;2.00;99.90;;;;;;4975930;28;20473;-87
2022/01/29 00:48:04;;;;;;;0.30;0.30;;;2.00;99.90;;;;;;4977089;28;20808;-87
2022/01/29 00:50:33;;;;;;;0.40;0.30;;;2.00;99.90;;;;;;4976797;28;20485;-87
2022/01/29 00:52:59;;;;;;;1.13;0.50;;;2.00;99.90;;;;;;4976698;28;20453;-84
2022/01/29 00:55:26;;;;;;;0.30;0.30;;;2.00;99.90;;;;;;4976425;28;20469;-85
2022/01/29 00:57:53;;;;;;;0.60;0.50;;;1.90;99.90;;;;;;4976490;28;20445;-84
2022/01/29 01:00:19;;;;;;;0.30;0.30;;;1.90;99.90;;;;;;4976843;28;20472;-87
2022/01/29 01:02:46;;;;;;;0.40;0.40;;;1.90;99.90;;;;;;4976614;28;20457;-87
2022/01/29 01:05:13;;;;;;;0.30;0.20;;;1.90;99.90;;;;;;4976616;28;20837;-85
2022/01/29 01:07:42;;;;;;;0.40;0.30;;;1.80;99.90;;;;;;4976385;28;20453;-82
2022/01/29 01:10:11;;;;;;;0.30;0.30;;;1.80;99.90;;;;;;4975818;28;20929;-83
2022/01/29 01:12:38;;;;;;;0.80;0.80;;;1.80;99.90;;;;;;4975798;28;20449;-82
2022/01/29 01:15:06;;;;;;;0.30;0.30;;;1.80;99.90;;;;;;4975604;28;20485;-82
2022/01/29 01:17:33;;;;;;;0.30;0.30;;;1.70;99.90;;;;;;4976093;28;20456;-83
2022/01/29 01:20:00;;;;;;;0.30;0.30;;;1.80;99.90;;;;;;4975947;28;20446;-83
2022/01/29 01:22:26;;;;;;;0.30;0.30;;;1.70;99.90;;;;;;4975958;28;20454;-83
2022/01/29 01:24:54;;;;;;;0.30;0.30;;;1.80;99.90;;;;;;4975530;28;20964;-83
2022/01/29 01:27:21;;;;;;;0.30;0.20;;;1.80;99.90;;;;;;4975529;28;20449;-83
2022/01/29 01:29:48;;;;;;;0.30;0.30;;;1.80;99.90;;;;;;4975848;28;20548;-83
2022/01/29 01:32:15;;;;;;;0.30;0.30;;;1.90;99.90;;;;;;4975373;28;21004;-83
2022/01/29 01:34:46;;;;;;;0.30;0.27;;;1.90;99.90;;;;;;4976445;28;20449;-86
2022/01/29 01:37:19;;;;;;;0.87;0.87;;;1.90;99.90;;;;;;4976177;28;20457;-87
2022/01/29 01:39:46;;;;;;;0.30;0.30;;;1.90;99.90;;;;;;4975986;28;20441;-82
2022/01/29 01:42:14;;;;;;;0.50;0.30;;;2.00;99.90;;;;;;4975775;28;20548;-82
2022/01/29 01:44:48;;;;;;;0.30;0.20;;;1.90;99.90;;;;;;4975471;28;20453;-82
2022/01/29 01:47:16;;;;;;;0.30;0.30;;;1.90;99.90;;;;;;4975560;28;20462;-83
2022/01/29 01:49:43;;;;;;;0.30;0.20;;;1.90;99.90;;;;;;4975172;28;20474;-82
2022/01/29 01:52:13;;;;;;;0.30;0.30;;;1.90;99.90;;;;;;4975176;28;20992;-82
2022/01/29 01:54:41;;;;;;;0.30;0.20;;;2.00;99.90;;;;;;4975566;28;20430;-83
2022/01/29 01:57:08;;;;;;;0.47;0.47;;;2.00;99.90;;;;;;4975219;28;20825;-82
2022/01/29 01:59:37;;;;;;;0.30;0.30;;;2.00;99.90;;;;;;4975472;28;20453;-82
2022/01/29 02:02:04;;;;;;;0.30;0.20;;;2.00;99.90;;;;;;4975288;28;20454;-82
2022/01/29 02:04:33;;;;;;;0.30;0.30;;;2.00;99.90;;;;;;4975139;28;20449;-82
2022/01/29 02:07:01;;;;;;;0.30;0.30;;;2.00;99.90;;;;;;4974774;28;20465;-82
2022/01/29 02:09:30;;;;;;;0.30;0.30;;;2.00;99.90;;;;;;4975791;28;20457;-82
2022/01/29 02:11:58;;;;;;;0.40;0.40;;;2.00;99.90;;;;;;4974833;28;20483;-82
2022/01/29 02:14:29;;;;;;;0.30;0.20;;;2.10;99.90;;;;;;4974869;28;20540;-84
2022/01/29 02:16:57;;;;;;;0.30;0.30;;;2.10;99.90;;;;;;4974917;28;20477;-84
2022/01/29 02:19:24;;;;;;;0.30;0.20;;;2.10;99.90;;;;;;4974937;28;20453;-84
2022/01/29 02:21:53;;;;;;;0.30;0.30;;;2.10;99.90;;;;;;4974898;28;20449;-84
2022/01/29 02:24:20;;;;;;;0.30;0.30;;;2.10;99.90;;;;;;4974902;28;20445;-84
2022/01/29 02:26:48;;;;;;;0.30;0.30;;;2.10;99.90;;;;;;4974723;28;20549;-85
2022/01/29 02:29:15;;;;;;;0.30;0.30;;;2.00;99.90;;;;;;4974849;28;20461;-84
2022/01/29 02:31:49;;;;;;;0.30;0.30;;;2.10;99.90;;;;;;4974451;28;20980;-82
2022/01/29 02:34:16;;;;;;;0.30;0.30;;;2.00;99.90;;;;;;4974970;28;20452;-82
2022/01/29 02:36:44;;;;;;;0.30;0.20;;;2.00;99.90;;;;;;4974403;28;20457;-82
2022/01/29 02:39:13;;;;;;;0.50;0.50;;;2.00;99.90;;;;;;4974665;28;20449;-82
2022/01/29 02:41:43;;;;;;;0.30;0.20;;;2.10;99.90;;;;;;4974624;28;20460;-82
2022/01/29 02:44:10;;;;;;;0.30;0.30;;;2.00;99.90;;;;;;4974362;28;20442;-82
2022/01/29 02:46:49;;;;;;;0.77;0.77;;;2.00;99.90;;;;;;4974622;28;20458;-87
2022/01/29 02:49:16;;;;;;;0.40;0.40;;;2.00;99.90;;;;;;4974955;28;20437;-83
2022/01/29 02:51:49;;;;;;;0.50;0.50;;;1.90;99.90;;;;;;4974150;28;21038;-83
2022/01/29 02:54:18;;;;;;;0.30;0.30;;;2.00;99.90;;;;;;4974217;28;20445;-82
2022/01/29 02:56:45;;;;;;;0.30;0.20;;;2.00;99.90;;;;;;4974157;28;20465;-82
2022/01/29 02:59:12;;;;;;;0.30;0.30;;;2.00;99.90;;;;;;4974482;28;20458;-83
2022/01/29 03:01:39;;;;;;;0.30;0.20;;;1.90;99.90;;;;;;4974467;28;20453;-82
2022/01/29 03:04:07;;;;;;;0.37;0.37;;;1.90;99.90;;;;;;4974421;28;20461;-83
2022/01/29 03:06:34;;;;;;;0.30;0.30;;;1.90;99.90;;;;;;4974372;28;20469;-82
2022/01/29 03:09:02;;;;;;;0.30;0.30;;;1.90;99.90;;;;;;4977738;28;20949;-82
2022/01/29 03:11:30;;;;;;;0.37;0.37;;;1.90;99.90;;;;;;4978010;28;20484;-82
2022/01/29 03:13:57;;;;;;;0.30;0.20;;;1.90;99.90;;;;;;4978009;28;20500;-84
2022/01/29 03:16:23;;;;;;;0.30;0.30;;;1.90;99.90;;;;;;4977912;28;20461;-84
2022/01/29 03:18:50;;;;;;;0.30;0.30;;;1.90;99.90;;;;;;4978190;28;20456;-84
2022/01/29 03:21:17;;;;;;;0.30;0.30;;;1.90;99.90;;;;;;4978178;28;20441;-84
2022/01/29 03:23:43;;;;;;;0.33;0.33;;;2.00;99.90;;;;;;4978106;28;20440;-84
2022/01/29 03:26:10;;;;;;;0.30;0.30;;;2.00;99.90;;;;;;4978029;28;20468;-84
2022/01/29 03:28:38;;;;;;;0.30;0.30;;;2.00;99.90;;;;;;4978476;28;20455;-87
2022/01/29 03:31:05;;;;;;;0.30;0.20;;;2.00;99.90;;;;;;4978417;28;20489;-87
2022/01/29 03:33:32;;;;;;;0.30;0.27;;;2.00;99.90;;;;;;4978399;28;20808;-87
2022/01/29 03:35:59;;;;;;;0.30;0.20;;;2.00;99.90;;;;;;4978098;28;20481;-87
2022/01/29 03:38:26;;;;;;;0.30;0.30;;;2.00;99.90;;;;;;4977894;28;20457;-83
2022/01/29 03:40:55;;;;;;;0.30;0.20;;;2.00;99.90;;;;;;4977529;28;20438;-83
2022/01/29 03:43:28;;;;;;;0.30;0.30;;;2.10;99.90;;;;;;4977737;28;20457;-83
2022/01/29 03:45:56;;;;;;;0.33;0.27;;;2.10;99.90;;;;;;4977733;28;20480;-83
2022/01/29 03:48:23;;;;;;;0.30;0.20;;;2.10;99.90;;;;;;4977735;28;20457;-83
2022/01/29 03:50:50;;;;;;;0.40;0.40;;;2.10;99.90;;;;;;4977513;28;20449;-83
2022/01/29 03:53:17;;;;;;;0.30;0.20;;;2.10;99.90;;;;;;4977390;28;20445;-83
2022/01/29 03:55:43;;;;;;;0.30;0.30;;;2.20;99.90;;;;;;4977095;28;20480;-83
2022/01/29 03:58:10;;;;;;;0.93;0.83;;;2.10;99.90;;;;;;4977131;28;20453;-83
2022/01/29 04:00:37;;;;;;;0.30;0.30;;;2.20;99.90;;;;;;4977465;28;20449;-83
2022/01/29 04:03:05;;;;;;;0.30;0.30;;;2.20;99.90;;;;;;4977738;28;20441;-82
2022/01/29 04:05:32;;;;;;;0.30;0.30;;;2.20;99.90;;;;;;4977281;28;20480;-83
2022/01/29 04:07:58;;;;;;;0.40;0.40;;;2.20;99.90;;;;;;4977097;28;20409;-82
2022/01/29 04:10:27;;;;;;;0.30;0.30;;;2.20;99.90;;;;;;4977705;28;20507;-87
2022/01/29 04:12:55;;;;;;;0.30;0.30;;;2.20;99.90;;;;;;4977613;28;20883;-87
2022/01/29 04:15:22;;;;;;;1.03;1.03;;;2.20;99.90;;;;;;4977387;28;20490;-87
2022/01/29 04:17:49;;;;;;;0.30;0.30;;;2.20;99.90;;;;;;4978071;28;20441;-87
2022/01/29 04:20:17;;;;;;;0.30;0.30;;;2.10;99.90;;;;;;4976338;28;20452;-87
2022/01/29 04:22:44;;;;;;;0.30;0.30;;;2.10;99.90;;;;;;4977516;28;20438;-87
2022/01/29 04:25:10;;;;;;;0.30;0.30;;;2.10;99.90;;;;;;4977259;28;20462;-87
2022/01/29 04:27:41;;;;;;;0.30;0.30;;;2.10;99.90;;;;;;4977250;28;20460;-82
2022/01/29 04:30:12;;;;;;;1.23;1.23;;;2.20;99.90;;;;;;4977024;28;20465;-83
2022/01/29 04:35:28;;;;;;;0.30;0.30;;;2.20;99.90;;;;;;4974467;28;20539;-82
2022/01/29 04:37:54;;;;;;;0.30;0.30;;;2.20;99.90;;;;;;4976548;28;20793;-83
2022/01/29 04:40:22;;;;;;;0.30;0.20;;;2.10;99.90;;;;;;4976724;28;20469;-83
2022/01/29 04:42:49;;;;;;;0.30;0.30;;;2.10;99.90;;;;;;4976514;28;20461;-83
2022/01/29 04:45:16;;;;;;;0.30;0.20;;;2.10;99.90;;;;;;4976685;28;20473;-83
2022/01/29 04:47:43;;;;;;;0.30;0.20;;;2.10;99.90;;;;;;4976340;28;20456;-83
2022/01/29 04:50:11;;;;;;;0.30;0.30;;;2.10;99.90;;;;;;4976405;28;20449;-87
2022/01/29 04:52:40;;;;;;;0.30;0.30;;;2.10;99.90;;;;;;4976726;28;20473;-87
2022/01/29 04:55:08;;;;;;;0.30;0.23;;;2.00;99.90;;;;;;4976689;28;20489;-87
2022/01/29 04:57:36;;;;;;;0.40;0.40;;;2.00;99.90;;;;;;4976874;28;20529;-83
2022/01/29 05:00:07;;;;;;;0.30;0.30;;;1.90;99.90;;;;;;4976445;28;20860;-83
2022/01/29 05:02:35;;;;;;;0.30;0.20;;;2.00;99.90;;;;;;4976144;28;20441;-83
2022/01/29 05:05:01;;;;;;;0.47;0.30;;;2.00;99.90;;;;;;4976147;28;20477;-82
2022/01/29 05:07:28;;;;;;;0.30;0.30;;;2.00;99.90;;;;;;4976232;28;20460;-82
2022/01/29 05:09:56;;;;;;;0.30;0.30;;;2.00;99.90;;;;;;4976225;28;20460;-84
2022/01/29 05:12:29;;;;;;;0.30;0.20;;;2.10;99.90;;;;;;4975779;28;20488;-84
2022/01/29 05:15:08;;;;;;;0.30;0.20;;;2.10;99.90;;;;;;4975865;28;20516;-84
2022/01/29 05:28:33;;;;;;;0.30;0.30;;;2.10;99.90;;;;;;4976642;28;20429;-87
2022/01/29 05:31:00;;;;;;;0.30;0.30;;;2.20;99.90;;;;;;4975962;28;20450;-86
2022/01/29 05:33:26;;;;;;;0.30;0.30;;;2.20;99.90;;;;;;4975684;28;20507;-87
2022/01/29 05:35:53;;;;;;;0.30;0.30;;;2.20;99.90;;;;;;4975837;28;20488;-87
2022/01/29 05:38:20;;;;;;;0.30;0.27;;;2.20;99.90;;;;;;4975855;28;20453;-87
2022/01/29 05:40:47;;;;;;;0.30;0.30;;;2.20;99.90;;;;;;4975745;28;20980;-87
2022/01/29 05:43:15;;;;;;;1.03;0.50;;;2.20;99.90;;;;;;4975734;28;20964;-87
2022/01/29 05:45:41;;;;;;;0.30;0.30;;;2.30;99.90;;;;;;4975797;28;20465;-87
2022/01/29 05:48:08;;;;;;;0.30;0.20;;;2.30;99.90;;;;;;4975879;28;20457;-87
2022/01/29 05:50:35;;;;;;;0.40;0.40;;;2.20;99.90;;;;;;4975718;28;20512;-87
2022/01/29 05:53:02;;;;;;;0.50;0.50;;;2.20;99.90;;;;;;4975650;28;20504;-87
2022/01/29 05:55:28;;;;;;;0.30;0.20;;;2.20;99.90;;;;;;4975612;28;20461;-87
2022/01/29 05:57:55;;;;;;;0.30;0.30;;;2.20;99.90;;;;;;4975449;28;20449;-83
2022/01/29 06:00:23;;;;;;;0.30;0.20;;;2.20;99.90;;;;;;4975287;28;20462;-82
2022/01/29 06:02:59;;;;;;;0.30;0.30;;;2.20;99.90;;;;;;4975244;28;20457;-82
2022/01/29 06:05:26;;;;;;;0.30;0.30;;;2.30;99.90;;;;;;4975130;28;20456;-82
2022/01/29 06:07:53;;;;;;;0.30;0.27;;;2.30;99.90;;;;;;4975398;28;20454;-83
2022/01/29 06:10:20;;;;;;;0.30;0.30;;;2.30;99.90;;;;;;4975190;28;20826;-82
2022/01/29 06:12:58;;;;;;;0.30;0.20;;;2.30;99.90;;;;;;4974762;28;20477;-82
2022/01/29 06:15:26;;;;;;;0.30;0.30;;;2.20;99.90;;;;;;4974893;28;20488;-82
2022/01/29 06:17:53;;;;;;;0.30;0.20;;;2.30;99.90;;;;;;4975223;28;20449;-82
2022/01/29 06:20:20;;;;;;;0.50;0.40;;;2.30;99.90;;;;;;4974900;28;20449;-82
2022/01/29 06:22:47;;;;;;;0.30;0.20;;;2.30;99.90;;;;;;4974660;28;20975;-83
2022/01/29 06:25:14;;;;;;;0.30;0.30;;;2.30;99.90;;;;;;4974819;28;20492;-84
2022/01/29 06:27:41;;;;;;;0.33;0.33;;;2.30;99.90;;;;;;4974873;28;20466;-84
2022/01/29 06:30:08;;;;;;;0.30;0.23;;;2.30;99.90;;;;;;4974846;28;20457;-84
2022/01/29 06:32:36;;;;;;;0.30;0.20;;;2.30;99.90;;;;;;4974736;28;20488;-84
2022/01/29 06:35:03;;;;;;;0.30;0.30;;;2.40;99.90;;;;;;4974568;28;20461;-84
2022/01/29 06:37:30;;;;;;;0.30;0.20;;;2.30;99.90;;;;;;4974699;28;20464;-83
2022/01/29 06:39:57;;;;;;;0.30;0.20;;;2.40;99.90;;;;;;4974449;28;20945;-84
2022/01/29 06:42:24;;;;;;;0.40;0.40;;;2.40;99.90;;;;;;4973931;28;20945;-84
2022/01/29 06:44:51;;;;;;;0.30;0.30;;;2.30;99.90;;;;;;4974361;28;20453;-84
2022/01/29 06:47:18;;;;;;;0.30;0.30;;;2.40;99.90;;;;;;4974690;28;20456;-83
2022/01/29 06:49:46;;;;;;;0.30;0.30;;;2.40;99.90;;;;;;4974572;28;20449;-84
2022/01/29 06:52:12;;;;;;;0.30;0.30;;;2.40;99.90;;;;;;4974538;28;20485;-84
2022/01/29 06:54:39;;;;;;;0.30;0.20;;;2.50;99.90;;;;;;4974543;28;20459;-84
2022/01/29 06:57:07;;;;;;;0.40;0.40;;;2.50;99.90;;;;;;4974630;28;21007;-87
2022/01/29 06:59:33;;;;;;;0.30;0.20;;;2.50;99.90;;;;;;4975003;28;20456;-84
2022/01/29 07:02:00;;;;;;;0.40;0.40;;;2.50;99.90;;;;;;4974164;28;20460;-83
2022/01/29 07:04:27;;;;;;;0.30;0.30;;;2.50;99.90;;;;;;4974539;28;20440;-83
2022/01/29 07:06:55;;;;;;;0.30;0.27;;;2.60;99.90;;;;;;4974144;28;20461;-84
2022/01/29 07:09:22;;;;;;;0.30;0.20;;;2.70;99.90;;;;;;4974623;28;20457;-82
2022/01/29 07:11:54;;;;;;;0.30;0.30;;;2.70;99.90;;;;;;4974368;28;20441;-83
2022/01/29 07:14:21;;;;;;;0.40;0.30;;;2.60;99.90;;;;;;4974201;28;20583;-82
2022/01/29 07:16:48;;;;;;;0.30;0.20;;;2.70;99.90;;;;;;4974301;28;20457;-84
2022/01/29 07:19:15;;;;;;;0.30;0.20;;;2.70;99.90;;;;;;4974333;28;20460;-84
2022/01/29 07:21:42;;;;;;;0.40;0.30;;;2.60;99.90;;;;;;4974662;28;20453;-87
2022/01/29 07:24:10;;;;;;;0.30;0.20;;;2.60;99.90;;;;;;4980146;28;20457;-87
2022/01/29 07:26:37;;;;;;;0.30;0.30;;;2.60;99.90;;;;;;4974638;28;20464;-87
2022/01/29 07:29:03;;;;;;;0.30;0.30;;;2.60;99.90;;;;;;4974101;28;20955;-82
2022/01/29 07:31:30;;;;;;;0.30;0.30;;;2.60;99.90;;;;;;4973890;28;20450;-82
2022/01/29 07:33:57;;;;;;;0.30;0.30;;;2.60;99.90;;;;;;4974540;28;20472;-83
2022/01/29 07:36:24;;;;;;;1.90;0.83;;;2.70;99.90;;;;;;4974125;28;20476;-83
2022/01/29 07:38:50;;;;;;;0.30;0.20;;;2.70;99.90;;;;;;4973950;28;20449;-83
2022/01/29 07:41:18;;;;;;;0.30;0.20;;;2.70;99.90;;;;;;4974256;28;20460;-85
2022/01/29 07:43:45;;;;;;;0.30;0.30;;;2.70;99.90;;;;;;4974099;28;20450;-84
2022/01/29 07:46:12;;;;;;;0.30;0.20;;;2.80;99.90;;;;;;4973891;28;20457;-83
2022/01/29 07:48:39;;;;;;;0.30;0.30;;;2.80;99.90;;;;;;4974019;28;20449;-83
2022/01/29 07:51:05;;;;;;;0.30;0.20;;;2.80;99.90;;;;;;4974014;28;20450;-83
2022/01/29 07:53:32;;;;;;;0.30;0.20;;;2.90;99.90;;;;;;4975027;28;20488;-83
2022/01/29 07:55:59;;;;;;;0.30;0.30;;;3.00;99.90;;;;;;4977523;28;20484;-83
2022/01/29 07:58:27;;;;;;;0.30;0.30;;;3.00;99.90;;;;;;4977185;28;20975;-83
2022/01/29 08:00:54;;;;;;;0.30;0.20;;;3.00;99.90;;;;;;4977370;28;20457;-83
2022/01/29 08:03:20;;;;;;;0.40;0.33;;;3.00;99.90;;;;;;4977277;28;20481;-84
2022/01/29 08:05:47;;;;;;;0.60;0.60;;;3.00;99.90;;;;;;4977135;28;20453;-84
2022/01/29 08:08:14;;;;;;;0.30;0.20;;;3.00;99.90;;;;;;4977201;28;20414;-84
2022/01/29 08:10:41;;;;;;;0.30;0.27;;;3.10;99.90;;;;;;4977360;28;20433;-84
2022/01/29 08:13:08;;;;;;;0.40;0.40;;;3.20;99.90;;;;;;4976848;28;20469;-84
2022/01/29 08:15:36;;;;;;;0.30;0.20;;;3.30;99.90;;;;;;4976921;28;21063;-84
2022/01/29 08:18:03;;;;;;;0.30;0.20;;;3.30;99.90;;;;;;4977265;28;20421;-84
2022/01/29 08:20:30;;;;;;;0.30;0.20;;;3.40;99.90;;;;;;4977263;28;20803;-84
2022/01/29 08:22:57;;;;;;;0.30;0.20;;;3.40;99.90;;;;;;4977153;28;20425;-84
2022/01/29 08:25:24;;;;;;;0.30;0.20;;;3.50;99.90;;;;;;4977043;28;20500;-84
2022/01/29 08:27:51;;;;;;;0.30;0.20;;;3.50;99.90;;;;;;4977055;28;20450;-84
2022/01/29 08:30:18;;;;;;;0.30;0.20;;;3.60;99.90;;;;;;4977050;28;20422;-84
2022/01/29 08:32:46;;;;;;;0.70;0.50;;;3.70;99.90;;;;;;4976838;28;20496;-84
2022/01/29 08:35:14;;;;;;;0.30;0.30;;;3.90;99.90;;;;;;4976901;28;20473;-84
2022/01/29 08:37:41;;;;;;;0.43;0.43;;;4.00;99.90;;;;;;4976879;28;20816;-84
2022/01/29 08:40:09;;;;;;;0.30;0.30;;;4.20;99.90;;;;;;4976874;28;20434;-85
2022/01/29 08:42:36;;;;;;;0.30;0.20;;;4.20;99.90;;;;;;4976963;28;20791;-83
2022/01/29 08:45:04;;;;;;;0.30;0.30;;;4.20;99.90;;;;;;4977412;28;20476;-83
2022/01/29 08:47:31;;;;;;;0.63;0.47;;;4.20;99.90;;;;;;4976421;28;20921;-83
2022/01/29 08:50:00;;;;;;;0.30;0.30;;;4.20;99.90;;;;;;4977040;28;20454;-83
2022/01/29 08:52:27;;;;;;;0.30;0.20;;;4.20;99.90;;;;;;4977053;28;20528;-83
2022/01/29 08:54:54;;;;;;;0.30;0.30;;;4.20;99.90;;;;;;4976501;28;20434;-83
2022/01/29 08:57:21;;;;;;;0.40;0.30;;;4.10;99.90;;;;;;4976589;28;20449;-83
2022/01/29 08:59:47;;;;;;;0.30;0.20;;;4.10;99.90;;;;;;4976493;28;20430;-83
2022/01/29 09:02:14;;;;;;;0.30;0.30;;;4.00;99.90;;;;;;4976137;28;20929;-84
2022/01/29 09:04:41;;;;;;;0.30;0.20;;;4.20;99.90;;;;;;4975965;28;20493;-85
2022/01/29 09:07:09;;;;;;;0.43;0.40;;;4.30;99.90;;;;;;4976407;28;20780;-84
2022/01/29 09:09:36;;;;;;;0.30;0.20;;;4.40;99.90;;;;;;4976489;28;20477;-88
2022/01/29 09:12:04;;;;;;;0.30;0.30;;;4.50;99.90;;;;;;4976277;28;20477;-85
2022/01/29 09:14:30;;;;;;;0.40;0.40;;;4.60;99.90;;;;;;4975769;28;21112;-88
2022/01/29 09:16:57;;;;;;;0.30;0.20;;;4.70;99.90;;;;;;4976307;28;20454;-88
2022/01/29 09:19:24;;;;;;;0.30;0.20;;;5.00;99.90;;;;;;4976583;28;20448;-88
2022/01/29 09:21:51;;;;;;;0.30;0.20;;;5.60;99.90;;;;;;4976595;28;20440;-88
2022/01/29 09:24:19;;;;;;;0.40;0.40;;;6.10;99.90;;;;;;4976343;28;20414;-87
2022/01/29 09:26:46;;;;;;;0.60;0.60;;;6.50;99.90;;;;;;4976077;28;21015;-87
2022/01/29 09:29:12;;;;;;;0.37;0.37;;;6.60;99.90;;;;;;4976719;28;20418;-87
2022/01/29 09:31:39;;;;;;;0.30;0.23;;;6.80;99.90;;;;;;4976421;28;20452;-87
2022/01/29 09:34:06;;;;;;;0.30;0.30;;;7.30;99.90;;;;;;4976127;28;21006;-87
2022/01/29 09:36:33;;;;;;;0.30;0.20;;;7.80;99.90;;;;;;4976203;28;20469;-87
2022/01/29 09:39:00;;;;;;;2.87;0.50;;;7.80;99.90;;;;;;4976317;28;20438;-87
2022/01/29 09:41:28;;;;;;;0.50;0.50;;;7.60;99.90;;;;;;4976135;28;20448;-88
2022/01/29 09:43:57;;;;;;;0.30;0.30;;;7.60;99.90;;;;;;4976221;28;20434;-87
2022/01/29 09:46:27;;;;;;;0.50;0.50;;;7.80;99.90;;;;;;4976233;28;20532;-86
2022/01/29 09:48:55;;;;;;;0.30;0.30;;;8.40;99.90;;;;;;4975648;28;20773;-86
2022/01/29 09:51:22;;;;;;;0.30;0.30;;;8.80;99.90;;;;;;4975642;28;20442;-86
2022/01/29 09:53:49;;;;;;;0.30;0.27;;;9.60;99.90;;;;;;4975522;28;20468;-86
2022/01/29 09:56:17;;;;;;;0.80;0.40;;;9.90;99.90;;;;;;4975270;28;20458;-86
2022/01/29 09:58:45;;;;;;;0.30;0.30;;;9.90;99.90;;;;;;4975532;28;20410;-86
2022/01/29 10:01:12;;;;;;;0.80;0.80;;;9.50;99.90;;;;;;4975373;28;20444;-86
2022/01/29 10:03:39;;;;;;;0.60;0.30;;;9.90;99.90;;;;;;4975464;28;20453;-86
2022/01/29 10:06:15;;;;;;;0.40;0.40;;;10.00;99.90;;;;;;4975572;28;20480;-88
2022/01/29 10:08:43;;;;;;;0.40;0.40;;;10.80;99.90;;;;;;4975937;28;20440;-83
2022/01/29 10:11:20;;;;;;;0.43;0.43;;;12.20;99.90;;;;;;4975073;28;20442;-83
2022/01/29 10:13:49;;;;;;;0.60;0.60;;;13.30;98.00;;;;;;4975322;28;20476;-89
2022/01/29 10:16:19;;;;;;;0.70;0.40;;;14.20;94.60;;;;;;4975445;28;20483;-89
2022/01/29 10:18:57;;;;;;;1.53;0.53;;;14.70;91.40;;;;;;4975571;28;20931;-89
2022/01/29 10:21:26;;;;;;;0.90;0.40;;;15.00;87.70;;;;;;4974980;28;20437;-83
2022/01/29 10:24:02;;;;;;;0.50;0.47;;;15.30;86.20;;;;;;4975633;28;20456;-83
2022/01/29 10:26:31;;;;;;;0.40;0.40;;;14.80;85.30;;;;;;4974790;28;20483;-83
2022/01/29 10:28:59;;;;;;;0.50;0.40;;;14.30;85.50;;;;;;4975186;28;20418;-83
2022/01/29 10:31:25;;;;;;;0.97;0.70;;;13.10;89.50;;;;;;4974847;28;20441;-83
2022/01/29 10:33:53;;;;;;;0.33;0.30;;;12.50;91.00;;;;;;4974536;28;20474;-89
2022/01/29 10:36:20;;;;;;;0.77;0.70;;;12.00;92.10;;;;;;4975624;28;20458;-90
2022/01/29 10:38:53;;;;;;;1.17;0.63;;;11.40;93.00;;;;;;4974852;28;20761;-83
2022/01/29 10:41:24;;;;;;;0.77;0.40;;;10.70;95.00;;;;;;4974962;28;20463;-83
2022/01/29 10:44:02;;;;;;;0.30;0.30;;;10.20;96.50;;;;;;4974895;28;20422;-83
2022/01/29 10:46:30;;;;;;;0.30;0.30;;;9.90;98.30;;;;;;4974636;28;20838;-83
2022/01/29 10:48:58;;;;;;;0.30;0.20;;;9.50;99.40;;;;;;4974410;28;20418;-83
2022/01/29 10:51:26;;;;;;;0.40;0.33;;;9.10;99.90;;;;;;4974576;28;20450;-83
2022/01/29 10:53:53;;;;;;;0.30;0.20;;;8.70;99.90;;;;;;4974507;28;20473;-84
2022/01/29 10:56:20;;;;;;;0.30;0.30;;;8.30;99.90;;;;;;4974203;28;20536;-83
2022/01/29 10:58:50;;;;;;;0.30;0.30;;;8.00;99.90;;;;;;4974545;28;20785;-82
2022/01/29 11:01:19;;;;;;;0.30;0.20;;;7.90;99.90;;;;;;4974966;28;20442;-85
2022/01/29 11:03:46;;;;;;;0.30;0.20;;;7.70;99.90;;;;;;4974240;28;20438;-83
2022/01/29 11:06:16;;;;;;;0.30;0.30;;;7.70;99.90;;;;;;4974052;28;20477;-83
2022/01/29 11:08:45;;;;;;;0.30;0.30;;;7.70;99.90;;;;;;4974127;28;20825;-83
2022/01/29 11:11:13;;;;;;;0.30;0.30;;;7.60;99.90;;;;;;4974398;28;20445;-84
2022/01/29 11:13:41;;;;;;;0.40;0.30;;;7.60;99.90;;;;;;4974218;28;20502;-84
2022/01/29 11:16:08;;;;;;;0.30;0.20;;;7.50;99.90;;;;;;4974019;28;20477;-84
2022/01/29 11:18:36;;;;;;;0.30;0.20;;;7.40;99.90;;;;;;4974160;28;20936;-84
2022/01/29 11:21:04;;;;;;;0.30;0.20;;;7.20;99.90;;;;;;4974433;28;20437;-85
2022/01/29 11:23:32;;;;;;;0.30;0.30;;;7.20;99.90;;;;;;4974416;28;20441;-85
2022/01/29 11:26:01;;;;;;;2.93;0.40;;;7.20;99.90;;;;;;4974025;28;20476;-84
2022/01/29 11:28:29;;;;;;;0.30;0.20;;;7.20;99.90;;;;;;4975191;28;20422;-84
2022/01/29 11:31:21;;;;;;;0.30;0.30;;;7.20;99.90;;;;;;4978097;28;20897;-88
2022/01/29 11:34:25;;;;;;;0.30;0.20;;;7.10;99.90;;;;;;4981434;28;20469;-85
2022/01/29 11:37:05;;;;;;;0.50;0.33;;;7.20;99.90;;;;;;4977733;28;20484;-84
2022/01/29 11:39:34;;;;;;;0.30;0.30;;;7.30;99.90;;;;;;4978007;28;20433;-84
2022/01/29 11:42:33;;;;;;;0.30;0.30;;;7.30;99.90;;;;;;4977958;28;20441;-84
2022/01/29 11:45:38;;;;;;;0.30;0.20;;;7.20;99.90;;;;;;4976938;28;20541;-87
2022/01/29 11:48:06;;;;;;;0.30;0.30;;;7.10;99.90;;;;;;4977869;28;20453;-80
2022/01/29 11:50:46;;;;;;;0.30;0.20;;;7.10;99.90;;;;;;4977458;28;20441;-80
2022/01/29 11:53:14;;;;;;;0.30;0.20;;;7.10;99.90;;;;;;4977782;28;20418;-81
2022/01/29 11:55:44;;;;;;;0.30;0.30;;;7.10;99.90;;;;;;4977551;28;20465;-80
2022/01/29 11:58:22;;;;;;;0.30;0.20;;;7.00;99.90;;;;;;4977405;28;20472;-80
2022/01/29 12:00:52;;;;;;;0.30;0.30;;;7.10;99.90;;;;;;4977864;28;20429;-86
2022/01/29 12:03:53;;;;;;;0.40;0.30;;;7.20;99.90;;;;;;4977504;28;20445;-86
2022/01/29 12:06:25;;;;;;;0.30;0.20;;;7.10;99.90;;;;;;4977612;28;20469;-86
2022/01/29 12:09:08;;;;;;;0.30;0.20;;;7.00;99.90;;;;;;4977712;28;20449;-86
2022/01/29 12:11:38;;;;;;;0.30;0.30;;;6.90;99.90;;;;;;4977177;28;20921;-82
2022/01/29 12:14:26;;;;;;;0.40;0.30;;;6.80;99.90;;;;;;4976841;28;20599;-82
2022/01/29 12:16:55;;;;;;;0.30;0.30;;;6.90;99.90;;;;;;4977175;28;20473;-82
2022/01/29 12:19:39;;;;;;;0.30;0.20;;;6.90;99.90;;;;;;4978041;28;20461;-82
2022/01/29 12:22:12;;;;;;;0.30;0.20;;;6.80;99.90;;;;;;4977171;28;20846;-81
2022/01/29 12:24:41;;;;;;;0.50;0.40;;;6.70;99.90;;;;;;4977424;28;20438;-81
2022/01/29 12:27:08;;;;;;;0.30;0.23;;;6.60;99.90;;;;;;4976554;28;20477;-80
2022/01/29 12:29:36;;;;;;;0.30;0.30;;;6.50;99.90;;;;;;4976998;28;20457;-80
2022/01/29 12:32:03;;;;;;;0.30;0.20;;;6.40;99.90;;;;;;4976696;28;20445;-81
2022/01/29 12:34:30;;;;;;;0.30;0.20;;;6.30;99.90;;;;;;4976544;28;21007;-82
2022/01/29 12:37:13;;;;;;;0.30;0.30;;;6.30;99.90;;;;;;4976547;28;20460;-82
2022/01/29 12:39:43;;;;;;;0.60;0.57;;;6.20;99.90;;;;;;4976048;28;20434;-82
2022/01/29 12:42:25;;;;;;;0.30;0.20;;;6.10;99.90;;;;;;4976755;28;20529;-82
2022/01/29 12:44:56;;;;;;;0.30;0.20;;;6.10;99.90;;;;;;4976432;28;20956;-82
2022/01/29 12:47:26;;;;;;;0.30;0.30;;;6.00;99.90;;;;;;4976453;28;20576;-82
2022/01/29 12:49:54;;;;;;;0.30;0.27;;;6.00;99.90;;;;;;4976634;28;20453;-82
2022/01/29 12:52:22;;;;;;;0.30;0.20;;;6.20;99.90;;;;;;4976666;28;20449;-82
2022/01/29 12:54:53;;;;;;;0.30;0.30;;;6.10;99.90;;;;;;4976113;28;20481;-82
2022/01/29 12:57:20;;;;;;;0.30;0.30;;;6.20;99.90;;;;;;4976483;28;20891;-82
2022/01/29 12:59:47;;;;;;;4.30;1.70;;;6.20;99.90;;;;;;4976184;28;20446;-82
2022/01/29 13:02:14;;;;;;;0.40;0.40;;;6.20;99.90;;;;;;4976386;28;20453;-82
2022/01/29 13:04:45;;;;;;;0.50;0.47;;;6.20;99.90;;;;;;4976323;28;20472;-82
2022/01/29 13:07:13;;;;;;;0.30;0.20;;;6.30;99.90;;;;;;4976396;28;20477;-82
2022/01/29 13:09:42;;;;;;;0.30;0.30;;;6.30;99.90;;;;;;4976364;28;20437;-82
2022/01/29 13:12:11;;;;;;;0.30;0.27;;;6.30;99.90;;;;;;4975990;28;20790;-82
2022/01/29 13:14:38;;;;;;;3.30;0.60;;;6.30;99.90;;;;;;4975965;28;20485;-81
2022/01/29 13:17:06;;;;;;;0.77;0.77;;;6.30;99.90;;;;;;4976038;28;20477;-80